Time;durP1;ratioP1;P1;durP2;ratioP2;P2;SDS_P1;SDS_P2;PMS_P1;PMS_P2;Temp;Humidity;BMP_temperature;BMP_pressure;BME280_temperature;BME280_humidity;BME280_pressure;Samples;Min_cycle;Max_cycle;Signal;HPM_P1;HPM_P2
2023/03/14 07:51:34;;;;;;;5.87;3.85;;;;;;;11.32;60.92;98362.00;1868294;76;34664;-52
2023/03/14 07:54:00;;;;;;;9.78;4.45;;;;;;;11.90;59.81;98360.44;1803927;78;25432;-55
2023/03/14 07:56:27;;;;;;;7.25;4.25;;;;;;;12.82;59.23;98366.66;1824461;78;27532;-52
2023/03/14 07:58:53;;;;;;;7.95;4.17;;;;;;;13.57;56.19;98362.55;1824419;78;25542;-55
2023/03/14 08:01:20;;;;;;;8.08;4.33;;;;;;;14.09;55.60;98342.16;1824453;78;25538;-52
2023/03/14 08:03:46;;;;;;;11.50;5.17;;;;;;;14.66;54.07;98341.09;1824403;78;25521;-56
2023/03/14 08:06:12;;;;;;;7.80;5.03;;;;;;;15.22;53.47;98334.01;1824555;78;25601;-56
2023/03/14 08:08:39;;;;;;;7.25;4.92;;;;;;;15.85;53.57;98344.75;1824465;78;29667;-56
2023/03/14 08:11:10;;;;;;;8.13;4.62;;;;;;;16.53;52.71;98346.52;1824331;78;25407;-55
2023/03/14 08:13:39;;;;;;;8.35;4.90;;;;;;;16.75;49.27;98351.30;1824453;78;25494;-56
2023/03/14 08:16:07;;;;;;;6.22;4.10;;;;;;;16.62;51.21;98350.19;1824442;78;25623;-56
2023/03/14 08:18:34;;;;;;;9.25;4.53;;;;;;;16.93;50.36;98352.58;1804296;78;25391;-56
2023/03/14 08:21:00;;;;;;;5.65;4.25;;;;;;;16.91;48.47;98349.48;1824445;78;27660;-56
2023/03/14 08:23:27;;;;;;;7.37;4.40;;;;;;;16.90;49.51;98353.38;1824326;78;25416;-54
2023/03/14 08:25:53;;;;;;;6.05;4.22;;;;;;;17.03;49.40;98360.53;1824464;78;25594;-54
2023/03/14 08:28:20;;;;;;;4.37;3.92;;;;;;;16.90;46.73;98365.66;1824376;78;25364;-55
2023/03/14 08:30:46;;;;;;;8.68;4.08;;;;;;;16.60;46.89;98358.77;1824466;78;25509;-53
2023/03/14 08:33:12;;;;;;;7.75;4.00;;;;;;;16.51;49.31;98356.27;1824414;78;27480;-54
2023/03/14 08:35:39;;;;;;;6.12;3.95;;;;;;;16.57;48.79;98352.73;1824358;78;25758;-51
2023/03/14 08:38:05;;;;;;;5.15;3.90;;;;;;;16.41;47.38;98364.11;1824424;78;25387;-52
2023/03/14 08:40:31;;;;;;;6.03;3.62;;;;;;;16.28;46.64;98354.79;1824379;78;25614;-51
2023/03/14 08:42:57;;;;;;;5.55;3.83;;;;;;;16.26;47.58;98353.05;1824473;78;25612;-53
2023/03/14 08:45:24;;;;;;;6.20;3.67;;;;;;;16.27;47.58;98361.41;1824471;78;27501;-52
2023/03/14 08:47:51;;;;;;;5.80;3.62;;;;;;;16.52;48.79;98360.56;1824360;78;25423;-55
2023/03/14 08:50:18;;;;;;;6.35;4.03;;;;;;;16.72;48.67;98360.27;1803688;78;25656;-54
2023/03/14 08:52:45;;;;;;;4.72;3.92;;;;;;;17.09;48.85;98366.34;1777607;78;27411;-56
2023/03/14 08:55:12;;;;;;;7.37;3.70;;;;;;;17.41;47.38;98357.94;1824434;78;25399;-56
2023/03/14 08:57:38;;;;;;;7.40;3.83;;;;;;;17.60;47.63;98359.94;1824441;78;27469;-56
2023/03/14 09:00:15;;;;;;;7.45;4.08;;;;;;;17.62;47.14;98352.91;1824311;78;25585;-53
2023/03/14 09:02:38;;;;;;;7.33;4.22;;;;;;;17.51;45.60;98352.97;1822159;78;25553;-54
2023/03/14 09:05:06;;;;;;;6.50;3.77;;;;;;;17.53;46.59;98356.67;1823823;78;25896;-54
2023/03/14 09:07:33;;;;;;;6.72;4.08;;;;;;;17.49;44.53;98338.17;1823881;78;25572;-53
2023/03/14 09:10:00;;;;;;;5.97;4.00;;;;;;;17.56;46.19;98344.94;1823826;78;27403;-57
2023/03/14 09:12:26;;;;;;;4.92;3.92;;;;;;;17.60;44.18;98358.58;1823751;78;25562;-55
2023/03/14 09:14:53;;;;;;;8.53;3.95;;;;;;;17.49;42.56;98348.50;1803352;78;25641;-55
2023/03/14 09:17:19;;;;;;;17.37;4.58;;;;;;;17.24;44.40;98351.41;1823801;78;25575;-54
2023/03/14 09:19:46;;;;;;;5.33;3.75;;;;;;;17.10;43.18;98339.23;1823859;78;25629;-57
2023/03/14 09:22:12;;;;;;;6.67;4.05;;;;;;;16.98;43.26;98366.41;1823830;78;27513;-56
2023/03/14 09:24:41;;;;;;;4.90;3.92;;;;;;;17.05;43.62;98332.23;1823738;78;25731;-54
2023/03/14 09:27:08;;;;;;;9.03;5.10;;;;;;;16.96;44.67;98344.20;1823951;78;25576;-52
2023/03/14 09:29:34;;;;;;;6.97;3.62;;;;;;;16.80;43.55;98341.33;1823744;78;25356;-56
2023/03/14 09:32:00;;;;;;;8.80;4.53;;;;;;;16.81;44.99;98327.08;1823856;78;25382;-55
2023/03/14 09:34:27;;;;;;;5.90;4.22;;;;;;;17.02;44.59;98324.83;1823810;78;27505;-54
2023/03/14 09:36:54;;;;;;;5.62;4.05;;;;;;;17.28;42.77;98321.33;1823657;78;25534;-54
2023/03/14 09:39:20;;;;;;;5.95;3.70;;;;;;;17.27;43.30;98311.00;1823880;78;25408;-55
2023/03/14 09:41:51;;;;;;;5.15;3.77;;;;;;;17.40;43.87;98305.05;1823766;78;25456;-57
2023/03/14 09:44:38;;;;;;;5.70;3.70;;;;;;;17.88;44.89;98289.22;1823823;78;25597;-56
2023/03/14 09:47:10;;;;;;;4.12;3.37;;;;;;;18.22;42.34;98292.56;1823803;78;27539;-56
2023/03/14 09:49:43;;;;;;;6.17;3.60;;;;;;;18.45;43.67;98298.72;1823793;78;25368;-55
2023/03/14 09:52:30;;;;;;;6.12;3.60;;;;;;;18.77;44.47;98276.98;1823800;78;25625;-56
2023/03/14 09:55:16;;;;;;;7.78;4.20;;;;;;;19.18;44.31;98274.03;1822560;78;25539;-55
2023/03/14 09:57:45;;;;;;;7.75;4.33;;;;;;;19.34;40.88;98276.72;1822208;78;25565;-55
2023/03/14 10:00:20;;;;;;;6.00;4.05;;;;;;;19.28;41.83;98274.30;1823949;78;27485;-60
2023/03/14 10:02:55;;;;;;;6.28;3.75;;;;;;;19.27;41.37;98257.66;1823744;78;25510;-59
2023/03/14 10:05:24;;;;;;;6.30;3.90;;;;;;;19.23;40.58;98249.50;1821443;78;25541;-58
2023/03/14 10:07:51;;;;;;;;;;;;;;;19.15;41.13;98248.83;1805875;78;25467;-57
2023/03/14 10:10:21;;;;;;;8.88;3.77;;;;;;;19.55;42.69;98250.92;1823775;78;25434;-58
2023/03/14 10:12:55;;;;;;;8.65;4.78;;;;;;;19.98;40.88;98236.42;1823777;78;27538;-60
2023/03/14 10:15:34;;;;;;;28.62;24.92;;;;;;;20.30;39.28;98244.00;1821743;78;25814;-59
2023/03/14 10:18:03;;;;;;;5.67;3.85;;;;;;;20.51;36.83;98248.25;1823979;78;25568;-60
2023/03/14 10:20:37;;;;;;;7.45;3.98;;;;;;;20.65;40.21;98249.17;1823779;78;25850;-60
2023/03/14 10:23:09;;;;;;;6.35;3.72;;;;;;;20.72;39.24;98246.26;1823874;78;25377;-59
2023/03/14 10:25:38;;;;;;;6.65;3.95;;;;;;;20.56;40.09;98243.47;1810085;78;27520;-57
2023/03/14 10:28:26;;;;;;;5.03;3.30;;;;;;;20.21;37.20;98247.14;1803003;78;25751;-57
2023/03/14 10:30:53;;;;;;;6.10;3.33;;;;;;;19.79;38.98;98246.20;1823737;78;25562;-60
2023/03/14 10:33:30;;;;;;;4.60;3.08;;;;;;;19.22;38.24;98256.95;1823660;78;27408;-59
2023/03/14 10:36:10;;;;;;;12.43;5.45;;;;;;;18.85;38.87;98245.61;1823827;78;25372;-59
2023/03/14 10:38:37;;;;;;;5.28;4.05;;;;;;;18.61;40.92;98238.68;1786454;78;27756;-58
2023/03/14 10:41:21;;;;;;;5.83;3.20;;;;;;;18.44;41.08;98239.70;1823669;78;25589;-57
2023/03/14 10:43:54;;;;;;;6.25;3.37;;;;;;;18.22;40.47;98224.16;1823364;78;25601;-56
2023/03/14 10:46:23;;;;;;;5.75;3.52;;;;;;;18.00;40.47;98231.86;1823709;78;25434;-54
2023/03/14 10:48:53;;;;;;;6.83;3.10;;;;;;;17.90;41.01;98226.69;1823852;78;25447;-56
2023/03/14 10:51:30;;;;;;;5.58;3.20;;;;;;;18.08;41.21;98264.75;1826850;78;27467;-60
2023/03/14 10:54:13;;;;;;;5.47;2.80;;;;;;;18.45;41.88;98220.71;1813508;78;25581;-58
2023/03/14 10:56:39;;;;;;;5.60;3.70;;;;;;;18.60;41.50;98234.38;1829881;78;25173;-58
2023/03/14 10:59:15;;;;;;;6.78;3.20;;;;;;;18.67;41.30;98238.98;1736505;78;25406;-60
2023/03/14 11:01:59;;;;;;;5.58;3.08;;;;;;;18.63;41.52;98238.27;1829895;78;25591;-58
2023/03/14 11:04:40;;;;;;;6.10;2.92;;;;;;;18.33;41.14;98237.70;1829876;78;27476;-59
2023/03/14 11:07:27;;;;;;;5.12;3.37;;;;;;;17.89;41.44;98236.06;1829331;77;27290;-58
2023/03/14 11:10:20;;;;;;;6.65;3.40;;;;;;;17.49;41.54;98228.85;1813654;78;25474;-58
2023/03/14 11:13:19;;;;;;;5.53;3.40;;;;;;;17.14;42.45;98238.91;1829865;77;25607;-58
2023/03/14 11:16:16;;;;;;;5.22;2.87;;;;;;;16.78;42.41;98244.61;1829832;77;25620;-57
2023/03/14 11:19:24;;;;;;;6.85;3.72;;;;;;;16.38;42.73;98244.08;1829862;77;28076;-60
2023/03/14 11:22:23;;;;;;;6.42;3.30;;;;;;;16.01;43.78;98252.98;1829735;77;25620;-55
2023/03/14 11:25:13;;;;;;;7.12;3.67;;;;;;;15.74;44.66;98249.14;1830071;77;25536;-57
2023/03/14 11:27:45;;;;;;;6.53;3.45;;;;;;;15.58;45.11;98246.26;1829745;78;27411;-57
2023/03/14 11:30:41;;;;;;;7.42;3.47;;;;;;;15.50;45.55;98256.97;1827743;77;25375;-57
2023/03/14 11:33:28;;;;;;;4.78;3.45;;;;;;;15.43;45.66;98251.53;1813601;78;27734;-57
2023/03/14 11:36:12;;;;;;;7.62;4.17;;;;;;;15.39;46.32;98251.55;1828087;77;25592;-57
2023/03/14 11:38:52;;;;;;;6.22;3.55;;;;;;;15.41;46.00;98249.77;1829787;77;25533;-56
2023/03/14 11:41:30;;;;;;;7.03;3.75;;;;;;;15.43;45.64;98246.09;1829811;77;25467;-58
2023/03/14 11:44:00;;;;;;;5.25;3.90;;;;;;;15.42;46.59;98238.48;1829895;77;25541;-57
2023/03/14 11:46:40;;;;;;;6.30;3.98;;;;;;;15.39;46.74;98236.56;1829835;77;27563;-55
2023/03/14 11:49:35;;;;;;;6.67;4.05;;;;;;;15.41;46.57;98230.13;1812362;78;25550;-57
2023/03/14 11:52:08;;;;;;;11.30;4.47;;;;;;;15.35;45.93;98231.69;1829661;78;25404;-54
2023/03/14 11:54:51;;;;;;;7.75;4.17;;;;;;;15.29;46.81;98225.86;1829816;78;25541;-57
2023/03/14 11:57:21;;;;;;;6.50;3.83;;;;;;;15.28;46.91;98213.41;1828568;77;25392;-54
2023/03/14 12:00:00;;;;;;;;;;;;;;;15.26;47.54;98216.34;1816279;78;27944;-56
2023/03/14 12:02:41;;;;;;;5.40;3.60;;;;;;;15.25;47.97;98229.16;1812061;78;25530;-56
2023/03/14 12:05:53;;;;;;;6.65;3.60;;;;;;;15.19;47.88;98228.58;1783622;80;25593;-58
2023/03/14 12:08:49;;;;;;;7.75;3.90;;;;;;;15.09;47.40;98226.07;1783849;80;25508;-56
2023/03/14 12:11:50;;;;;;;6.83;4.08;;;;;;;14.92;47.59;98222.95;1783818;80;25552;-53
2023/03/14 12:14:31;;;;;;;7.03;4.03;;;;;;;14.82;48.02;98233.24;1783285;80;27468;-55
2023/03/14 12:17:20;;;;;;;5.65;3.87;;;;;;;14.70;48.39;98235.75;1782152;80;25989;-54
2023/03/14 12:19:48;;;;;;;9.45;4.00;;;;;;;14.66;48.53;98228.73;1783728;80;25239;-54
2023/03/14 12:22:30;;;;;;;7.70;3.90;;;;;;;14.73;48.32;98233.63;1757249;80;26094;-58
2023/03/14 12:25:02;;;;;;;6.83;4.33;;;;;;;15.20;47.77;98232.86;1783894;80;25594;-57
2023/03/14 12:27:58;;;;;;;9.18;4.67;;;;;;;15.72;49.31;98226.96;1783397;80;28129;-57
2023/03/14 12:30:32;;;;;;;7.58;4.67;;;;;;;16.28;48.71;98223.86;1783725;80;25591;-54
2023/03/14 12:33:23;;;;;;;10.63;5.12;;;;;;;16.71;47.28;98242.70;1783823;80;25498;-52
2023/03/14 12:36:00;;;;;;;6.50;4.58;;;;;;;16.61;46.69;98242.95;1783228;80;25530;-55
2023/03/14 12:38:49;;;;;;;9.88;4.55;;;;;;;16.73;46.80;98234.11;1758255;80;25235;-54
2023/03/14 12:41:31;;;;;;;;;;;;;;;16.72;46.20;98247.56;1798145;78;27828;-55
2023/03/14 12:44:19;;;;;;;8.95;4.95;;;;;;;16.53;45.17;98237.94;1829306;77;25906;-57
2023/03/14 12:46:47;;;;;;;7.00;4.20;;;;;;;16.19;44.37;98244.74;1830273;77;25582;-56
2023/03/14 12:49:13;;;;;;;10.13;5.25;;;;;;;15.89;46.20;98249.92;1829863;77;26080;-58
2023/03/14 12:51:45;;;;;;;9.20;4.75;;;;;;;15.67;46.74;98241.16;1828449;77;25716;-58
2023/03/14 12:54:41;;;;;;;11.55;5.00;;;;;;;15.51;46.55;98244.91;1829934;77;27441;-56
2023/03/14 12:57:31;;;;;;;12.82;5.55;;;;;;;15.38;47.17;98249.20;1829854;78;25757;-56
2023/03/14 13:00:07;;;;;;;8.55;4.90;;;;;;;15.25;47.45;98229.75;1779192;80;25787;-57
2023/03/14 13:02:43;;;;;;;15.20;5.53;;;;;;;15.16;48.09;98240.27;1778738;80;26147;-55
2023/03/14 13:05:22;;;;;;;9.55;5.60;;;;;;;15.09;48.50;98239.69;1779404;80;25471;-56
2023/03/14 13:07:57;;;;;;;7.37;4.80;;;;;;;14.95;48.59;98248.63;1779399;80;27461;-55
2023/03/14 13:10:27;;;;;;;8.95;5.37;;;;;;;14.82;48.90;98249.58;1779197;80;25461;-54
2023/03/14 13:13:03;;;;;;;9.98;5.33;;;;;;;14.71;49.26;98255.57;1779292;80;25491;-56
2023/03/14 13:15:43;;;;;;;9.30;5.12;;;;;;;14.60;49.58;98243.31;1765118;80;25593;-55
2023/03/14 13:18:18;;;;;;;11.28;5.80;;;;;;;14.52;49.94;98260.19;1779357;80;25557;-56
2023/03/14 13:21:05;;;;;;;9.53;5.30;;;;;;;14.40;50.08;98259.16;1779281;80;27456;-57
2023/03/14 13:23:36;;;;;;;13.28;5.87;;;;;;;14.35;50.39;98260.89;1779188;80;25877;-57
2023/03/14 13:26:05;;;;;;;9.43;5.22;;;;;;;14.25;50.72;98276.03;1779269;80;25640;-57
2023/03/14 13:28:34;;;;;;;10.30;5.92;;;;;;;14.16;51.77;98284.51;1779405;80;26154;-56
2023/03/14 13:31:05;;;;;;;10.38;5.10;;;;;;;13.98;53.09;98277.64;1779405;80;26025;-56
2023/03/14 13:33:33;;;;;;;10.10;5.47;;;;;;;13.81;54.45;98289.20;1779280;80;27253;-57
2023/03/14 13:36:03;;;;;;;10.78;5.78;;;;;;;13.58;55.60;98300.30;1780161;78;25574;-56
2023/03/14 13:38:35;;;;;;;7.87;5.03;;;;;;;13.32;56.40;98285.75;1829933;78;25376;-57
2023/03/14 13:41:07;;;;;;;14.25;5.80;;;;;;;13.12;57.48;98290.59;1829867;78;25532;-55
2023/03/14 13:43:43;;;;;;;10.82;5.37;;;;;;;12.90;58.35;98286.90;1829943;78;25390;-53
2023/03/14 13:46:17;;;;;;;9.48;5.83;;;;;;;12.73;59.51;98291.00;1829857;78;27570;-56
2023/03/14 13:49:00;;;;;;;13.68;5.50;;;;;;;12.57;60.30;98295.88;1829823;78;25623;-56
2023/03/14 13:51:31;;;;;;;8.90;5.92;;;;;;;12.41;62.05;98294.71;1828046;77;25546;-54
2023/03/14 13:53:56;;;;;;;8.18;5.08;;;;;;;12.21;61.99;98296.78;1803786;78;25504;-56
2023/03/14 13:56:27;;;;;;;14.75;6.15;;;;;;;12.07;62.11;98297.39;1823744;78;25550;-55
2023/03/14 13:58:55;;;;;;;9.93;5.95;;;;;;;11.96;62.51;98291.25;1823799;78;28106;-56
2023/03/14 14:01:35;;;;;;;11.65;5.53;;;;;;;11.86;63.43;98288.38;1823666;78;25358;-57
2023/03/14 14:04:10;;;;;;;9.15;5.37;;;;;;;11.75;64.28;98290.95;1823779;78;25506;-56
2023/03/14 14:06:39;;;;;;;26.23;17.37;;;;;;;11.68;65.05;98293.53;1823252;78;25539;-57
2023/03/14 14:09:23;;;;;;;13.32;7.28;;;;;;;11.63;65.28;98293.29;1803396;78;25391;-55
2023/03/14 14:11:54;;;;;;;12.55;6.45;;;;;;;11.57;65.53;98302.86;1823842;78;27428;-55
2023/03/14 14:14:28;;;;;;;10.93;6.05;;;;;;;11.52;66.37;98301.23;1823732;78;25381;-55
2023/03/14 14:16:58;;;;;;;12.85;6.42;;;;;;;11.49;67.39;98302.53;1823811;78;25577;-56
2023/03/14 14:19:27;;;;;;;;;;;;;;;11.42;66.57;98295.08;1826451;78;25549;-53
2023/03/14 14:21:54;;;;;;;12.50;6.50;;;;;;;11.37;67.40;98292.68;1830699;78;25531;-52
2023/03/14 14:24:25;;;;;;;11.80;5.78;;;;;;;11.29;67.34;98284.23;1823777;78;27506;-57
2023/03/14 14:26:55;;;;;;;13.00;5.83;;;;;;;11.26;67.87;98283.05;1823711;78;25715;-56
2023/03/14 14:29:32;;;;;;;11.70;6.12;;;;;;;11.23;68.24;98288.41;1803412;78;25443;-54
2023/03/14 14:32:15;;;;;;;10.98;5.78;;;;;;;11.16;68.75;98284.43;1823735;78;25697;-56
2023/03/14 14:34:49;;;;;;;11.00;6.58;;;;;;;11.10;69.27;98280.48;1823843;78;25448;-55
2023/03/14 14:37:26;;;;;;;11.70;6.12;;;;;;;11.05;69.32;98275.38;1822588;78;27502;-57
2023/03/14 14:39:57;;;;;;;9.93;6.53;;;;;;;11.01;70.11;98267.75;1822086;78;25689;-55
2023/03/14 14:42:28;;;;;;;11.38;6.25;;;;;;;10.96;70.74;98267.47;1822426;78;25767;-52
2023/03/14 14:44:59;;;;;;;12.40;7.47;;;;;;;10.87;71.46;98256.70;1823727;78;25554;-56
2023/03/14 14:47:29;;;;;;;11.55;6.58;;;;;;;10.80;71.73;98260.06;1823798;78;25397;-54
2023/03/14 14:50:00;;;;;;;13.60;7.62;;;;;;;10.73;72.44;98259.94;1823734;78;28092;-56
2023/03/14 14:52:43;;;;;;;12.75;7.22;;;;;;;10.67;72.88;98259.44;1823557;78;25365;-54
2023/03/14 14:55:19;;;;;;;13.62;7.58;;;;;;;10.60;73.43;98254.67;1823768;78;25488;-56
2023/03/14 14:57:53;;;;;;;13.98;7.97;;;;;;;10.52;73.75;98247.60;1823755;78;25541;-55
2023/03/14 15:00:27;;;;;;;11.73;7.67;;;;;;;10.45;74.29;98248.80;1823800;78;25395;-56
2023/03/14 15:03:01;;;;;;;12.88;8.40;;;;;;;10.39;74.77;98244.26;1823780;78;27440;-56
2023/03/14 15:05:31;;;;;;;18.17;8.03;;;;;;;10.35;75.96;98233.97;1803167;78;26701;-56
2023/03/14 15:07:57;;;;;;;14.73;7.95;;;;;;;10.28;75.22;98231.08;1823695;78;25511;-56
2023/03/14 15:10:26;;;;;;;11.78;7.17;;;;;;;10.26;75.89;98232.78;1823651;78;25518;-54
2023/03/14 15:12:53;;;;;;;13.95;7.40;;;;;;;10.25;76.08;98236.64;1823849;78;25533;-53
2023/03/14 15:15:20;;;;;;;12.70;7.85;;;;;;;10.22;76.21;98250.85;1823712;78;27431;-54
2023/03/14 15:17:46;;;;;;;15.45;8.93;;;;;;;10.21;76.44;98253.91;1802987;78;25381;-53
2023/03/14 15:20:18;;;;;;;14.38;8.70;;;;;;;10.18;77.05;98247.31;1823676;78;25530;-55
2023/03/14 15:22:44;;;;;;;17.52;8.13;;;;;;;10.17;77.54;98250.37;1823685;78;25632;-55
2023/03/14 15:25:11;;;;;;;15.48;8.68;;;;;;;10.14;77.53;98255.90;1823735;78;25553;-56
2023/03/14 15:27:42;;;;;;;14.00;7.80;;;;;;;10.11;77.79;98283.61;1823670;78;27517;-54
2023/03/14 15:30:15;;;;;;;11.80;7.85;;;;;;;10.08;78.33;98306.73;1823671;78;25366;-56
2023/03/14 15:32:42;;;;;;;14.35;7.67;;;;;;;10.03;78.51;98312.41;1803187;78;25491;-54
2023/03/14 15:35:09;;;;;;;9.63;7.40;;;;;;;9.99;78.70;98312.11;1823664;78;26114;-52
2023/03/14 15:37:36;;;;;;;16.97;7.42;;;;;;;9.95;78.82;98299.88;1803124;78;25466;-54
2023/03/14 15:40:11;;;;;;;11.95;7.62;;;;;;;9.95;79.07;98301.81;1823660;78;27492;-54
2023/03/14 15:42:33;;;;;;;13.88;7.60;;;;;;;9.91;79.38;98284.95;1822816;78;26246;-55
2023/03/14 15:44:59;;;;;;;13.05;7.65;;;;;;;9.91;78.81;98272.03;1803210;78;25518;-58
2023/03/14 15:47:27;;;;;;;14.28;7.67;;;;;;;9.88;79.04;98277.55;1823701;78;25623;-56
2023/03/14 15:49:53;;;;;;;12.65;7.28;;;;;;;9.88;79.13;98270.03;1803103;78;25642;-56
2023/03/14 15:52:19;;;;;;;15.00;8.43;;;;;;;9.86;79.10;98271.73;1823556;78;27457;-55
2023/03/14 15:54:46;;;;;;;13.00;7.95;;;;;;;9.86;79.15;98273.66;1823624;78;25383;-53
2023/03/14 15:57:12;;;;;;;13.60;7.80;;;;;;;9.85;79.13;98276.13;1823675;78;25519;-54
2023/03/14 15:59:38;;;;;;;11.10;7.78;;;;;;;9.83;79.42;98279.18;1823624;78;25590;-54
2023/03/14 16:02:05;;;;;;;13.03;7.70;;;;;;;9.83;79.46;98279.18;1823744;78;25557;-56
2023/03/14 16:04:32;;;;;;;14.35;8.03;;;;;;;9.84;79.58;98284.00;1823653;78;28063;-57
2023/03/14 16:06:58;;;;;;;16.05;8.35;;;;;;;9.81;79.65;98287.44;1823572;78;25422;-58
2023/03/14 16:09:26;;;;;;;12.78;7.55;;;;;;;9.81;79.86;98298.23;1823632;78;25390;-55
2023/03/14 16:11:54;;;;;;;15.40;7.92;;;;;;;9.80;79.92;98302.06;1823656;78;25838;-56
2023/03/14 16:14:21;;;;;;;11.08;7.87;;;;;;;9.77;80.48;98306.80;1803354;78;25645;-55
2023/03/14 16:16:47;;;;;;;13.28;7.78;;;;;;;9.76;80.19;98322.23;1823853;78;27529;-54
2023/03/14 16:19:13;;;;;;;11.68;6.83;;;;;;;9.76;79.94;98327.63;1823783;78;32858;-55
2023/03/14 16:21:40;;;;;;;15.10;7.62;;;;;;;9.74;79.88;98312.36;1823927;78;25434;-57
2023/03/14 16:24:07;;;;;;;11.78;7.55;;;;;;;9.72;79.65;98309.20;1823819;78;26221;-56
2023/03/14 16:26:36;;;;;;;15.43;7.42;;;;;;;9.73;80.33;98315.60;1823878;78;25589;-55
2023/03/14 16:29:03;;;;;;;13.00;7.07;;;;;;;9.72;79.91;98307.30;1824196;78;28130;-57
2023/03/14 16:31:29;;;;;;;70.87;65.60;;;;;;;9.73;79.66;98294.58;1791271;80;25551;-56
2023/03/14 16:34:02;;;;;;;11.60;6.97;;;;;;;9.70;80.43;98310.93;1791372;80;25530;-55
2023/03/14 16:36:30;;;;;;;10.70;7.60;;;;;;;9.74;79.88;98316.41;1791435;79;25540;-54
2023/03/14 16:38:57;;;;;;;15.50;8.15;;;;;;;9.76;79.55;98320.88;1791440;80;25499;-53
2023/03/14 16:41:28;;;;;;;13.28;8.28;;;;;;;9.76;80.01;98312.00;1791461;79;28071;-58
2023/03/14 16:43:55;;;;;;;14.55;8.78;;;;;;;9.77;79.45;98318.95;1791463;79;29549;-54
2023/03/14 16:46:24;;;;;;;13.65;8.03;;;;;;;9.76;79.51;98321.45;1791042;79;25553;-55
2023/03/14 16:48:51;;;;;;;15.03;8.48;;;;;;;9.75;79.56;98306.38;1753292;80;25504;-53
2023/03/14 16:51:19;;;;;;;14.87;8.63;;;;;;;9.75;79.28;98310.43;1791398;80;25316;-58
2023/03/14 16:53:47;;;;;;;42.73;30.30;;;;;;;9.77;79.28;98322.42;1795798;79;27360;-56
2023/03/14 16:56:15;;;;;;;17.30;11.03;;;;;;;9.79;79.54;98336.93;1795796;79;25538;-53
2023/03/14 16:58:42;;;;;;;14.78;8.93;;;;;;;9.82;79.65;98344.34;1795911;79;25637;-54
2023/03/14 17:01:16;;;;;;;14.45;8.63;;;;;;;9.81;79.22;98342.78;1797240;79;25517;-54
2023/03/14 17:03:48;;;;;;;15.32;9.28;;;;;;;9.79;79.16;98336.38;1797385;79;25490;-51
2023/03/14 17:06:22;;;;;;;15.98;9.65;;;;;;;9.80;79.36;98329.06;1781302;79;27792;-54
2023/03/14 17:08:52;;;;;;;14.30;8.55;;;;;;;9.79;79.14;98326.13;1796993;79;25312;-57
2023/03/14 17:11:19;;;;;;;15.58;8.88;;;;;;;9.79;79.25;98317.48;1797350;79;25315;-54
2023/03/14 17:13:47;;;;;;;13.35;9.58;;;;;;;9.78;79.58;98309.73;1763324;79;26181;-56
2023/03/14 17:16:14;;;;;;;19.65;8.95;;;;;;;9.78;79.18;98314.56;1796192;79;25599;-53
2023/03/14 17:18:42;;;;;;;17.75;9.50;;;;;;;9.79;79.19;98313.98;1795690;79;27427;-53
2023/03/14 17:21:09;;;;;;;15.05;9.85;;;;;;;9.80;79.64;98323.66;1795970;79;25669;-57
2023/03/14 17:23:37;;;;;;;16.80;10.05;;;;;;;9.80;79.06;98325.01;1796058;79;25565;-57
2023/03/14 17:26:06;;;;;;;16.82;9.93;;;;;;;9.80;79.04;98327.70;1796010;79;27604;-57
2023/03/14 17:28:34;;;;;;;15.83;10.13;;;;;;;9.80;79.01;98326.36;1796114;79;25626;-58
2023/03/14 17:31:10;;;;;;;15.45;9.80;;;;;;;9.80;78.92;98324.43;1796852;79;27886;-56
2023/03/14 17:33:37;;;;;;;16.30;10.45;;;;;;;9.79;79.17;98329.63;1796947;79;25505;-56
2023/03/14 17:36:07;;;;;;;21.52;10.68;;;;;;;9.78;79.16;98331.33;1797221;79;25379;-57
2023/03/14 17:38:36;;;;;;;19.23;10.43;;;;;;;9.78;78.96;98324.01;1794885;79;25540;-52
2023/03/14 17:41:07;;;;;;;18.02;9.93;;;;;;;9.80;79.25;98331.75;1797439;79;25377;-57
2023/03/14 17:43:35;;;;;;;15.90;10.05;;;;;;;9.77;78.83;98327.83;1796870;79;27489;-55
2023/03/14 17:46:12;;;;;;;18.27;10.80;;;;;;;9.77;78.84;98337.28;1797190;79;25497;-56
2023/03/14 17:48:41;;;;;;;17.62;10.18;;;;;;;9.80;78.75;98339.86;1797506;79;25555;-58
2023/03/14 17:51:08;;;;;;;23.20;11.73;;;;;;;9.78;78.92;98332.11;1763134;79;26183;-56
2023/03/14 17:53:37;;;;;;;17.57;10.90;;;;;;;9.78;78.92;98340.20;1794052;79;25434;-53
2023/03/14 17:56:07;;;;;;;19.20;10.57;;;;;;;9.77;78.78;98334.58;1791590;80;27493;-56
2023/03/14 17:58:42;;;;;;;18.95;10.18;;;;;;;9.77;78.71;98326.48;1791299;79;25518;-58
2023/03/14 18:01:14;;;;;;;19.25;10.82;;;;;;;9.77;78.60;98337.85;1790774;79;25519;-57
2023/03/14 18:03:44;;;;;;;22.42;12.23;;;;;;;9.77;78.60;98337.85;1791327;79;26322;-58
2023/03/14 18:06:15;;;;;;;18.70;11.05;;;;;;;9.76;78.66;98338.43;1791364;80;25380;-55
2023/03/14 18:08:43;;;;;;;18.40;10.63;;;;;;;9.77;78.72;98336.50;1791354;80;27362;-56
2023/03/14 18:11:12;;;;;;;21.17;11.53;;;;;;;9.87;78.67;98358.91;1791512;79;25324;-55
2023/03/14 18:13:41;;;;;;;22.95;12.28;;;;;;;9.87;78.67;98358.91;1791440;80;25511;-56
2023/03/14 18:16:14;;;;;;;19.37;10.83;;;;;;;9.76;78.65;98338.43;1791548;79;26188;-59
2023/03/14 18:18:44;;;;;;;19.02;12.03;;;;;;;9.76;78.65;98351.93;1791408;79;25318;-58
2023/03/14 18:21:12;;;;;;;;;;;;;;;9.78;78.73;98350.23;1784897;80;27226;-55
2023/03/14 18:23:40;;;;;;;17.70;9.63;;;;;;;9.79;78.66;98357.18;1791305;80;25659;-56
2023/03/14 18:26:08;;;;;;;18.05;10.10;;;;;;;9.78;78.73;98350.23;1791301;80;25321;-53
2023/03/14 18:28:35;;;;;;;15.63;10.20;;;;;;;9.79;78.61;98357.18;1791246;80;25506;-59
2023/03/14 18:31:09;;;;;;;17.23;10.35;;;;;;;9.78;78.47;98344.83;1791402;80;25443;-53
2023/03/14 18:33:40;;;;;;;16.80;9.95;;;;;;;9.80;78.58;98347.38;1791292;80;27440;-59
2023/03/14 18:36:11;;;;;;;17.90;10.38;;;;;;;9.80;78.50;98333.88;1791220;79;25491;-58
2023/03/14 18:38:41;;;;;;;18.05;9.85;;;;;;;9.81;78.38;98348.95;1791334;79;25460;-58
2023/03/14 18:41:12;;;;;;;15.68;10.25;;;;;;;9.83;78.37;98356.71;1753102;80;25415;-57
2023/03/14 18:43:41;;;;;;;17.25;10.75;;;;;;;9.82;78.34;98354.56;1791467;80;25298;-58
2023/03/14 18:46:14;;;;;;;19.27;11.08;;;;;;;9.86;78.15;98364.12;1782325;80;27810;-57
2023/03/14 18:48:42;;;;;;;20.05;11.00;;;;;;;9.85;78.06;98362.54;1791221;80;25486;-58
2023/03/14 18:51:13;;;;;;;15.58;10.18;;;;;;;9.86;77.93;98363.54;1791301;79;25321;-57
2023/03/14 18:53:43;;;;;;;20.62;11.90;;;;;;;9.87;77.90;98362.97;1791180;79;25530;-57
2023/03/14 18:56:11;;;;;;;25.50;11.88;;;;;;;9.88;77.89;98363.97;1791461;80;25358;-57
2023/03/14 18:58:40;;;;;;;20.88;11.28;;;;;;;9.88;77.81;98348.34;1782335;80;27212;-55
2023/03/14 19:01:11;;;;;;;16.93;10.10;;;;;;;9.88;77.68;98349.69;1791239;80;25803;-55
2023/03/14 19:03:41;;;;;;;18.92;10.53;;;;;;;9.85;77.70;98353.86;1791372;79;25446;-57
2023/03/14 19:06:11;;;;;;;;;;;;;;;9.84;77.61;98363.11;1793932;80;26190;-57
2023/03/14 19:08:42;;;;;;;16.42;9.85;;;;;;;9.84;77.52;98369.06;1751023;81;25336;-58
2023/03/14 19:11:15;;;;;;;15.40;8.98;;;;;;;9.79;77.51;98365.28;1726235;83;28466;-56
2023/03/14 19:13:45;;;;;;;17.17;10.20;;;;;;;9.78;77.48;98367.78;1751579;81;25632;-55
2023/03/14 19:16:15;;;;;;;14.83;8.38;;;;;;;9.77;77.54;98366.20;1739734;82;25525;-54
2023/03/14 19:18:43;;;;;;;17.48;8.70;;;;;;;9.75;77.40;98371.17;1725953;83;25394;-52
2023/03/14 19:21:14;;;;;;;17.05;9.23;;;;;;;9.73;77.42;98383.09;1736945;82;25512;-53
2023/03/14 19:23:47;;;;;;;15.60;8.65;;;;;;;9.73;77.51;98390.42;1726262;83;27473;-55
2023/03/14 19:26:17;;;;;;;14.73;8.45;;;;;;;9.71;77.45;98377.27;1655461;85;25910;-54
2023/03/14 19:28:45;;;;;;;13.55;8.33;;;;;;;9.72;77.38;98383.44;1691534;84;25436;-53
2023/03/14 19:31:16;;;;;;;12.53;8.35;;;;;;;9.71;77.42;98381.31;1736807;82;25570;-55
2023/03/14 19:33:47;;;;;;;12.40;8.33;;;;;;;9.69;77.33;98375.49;1736907;82;25330;-56
2023/03/14 19:36:28;;;;;;;16.23;8.50;;;;;;;9.66;77.34;98372.13;1736910;82;28318;-57
2023/03/14 19:39:01;;;;;;;14.05;8.18;;;;;;;9.66;77.33;98372.70;1733865;82;25516;-56
2023/03/14 19:41:32;;;;;;;14.10;7.80;;;;;;;9.61;77.37;98369.70;1736927;82;25560;-57
2023/03/14 19:44:00;;;;;;;14.35;8.38;;;;;;;9.60;77.29;98374.87;1736848;82;26155;-55
2023/03/14 19:46:34;;;;;;;14.40;8.23;;;;;;;9.59;77.39;98378.72;1736878;82;25543;-55